Time;durP1;ratioP1;P1;durP2;ratioP2;P2;SDS_P1;SDS_P2;PMS_P1;PMS_P2;Temp;Humidity;BMP_temperature;BMP_pressure;BME280_temperature;BME280_humidity;BME280_pressure;Samples;Min_cycle;Max_cycle;Signal;HPM_P1;HPM_P2
2024/01/21 00:00:29;;;;;;;14.63;9.02;;;;;;;;;;5071218;28;20032;-80
2024/01/21 00:02:55;;;;;;;18.73;9.38;;;;;;;;;;5071093;28;20054;-80
2024/01/21 00:05:21;;;;;;;14.05;8.85;;;;;;;;;;5071012;28;20028;-80
2024/01/21 00:07:47;;;;;;;14.55;8.80;;;;;;;;;;5070956;28;20089;-80
2024/01/21 00:10:13;;;;;;;16.08;9.55;;;;;;;;;;5071532;28;20021;-80
2024/01/21 00:12:39;;;;;;;17.25;9.45;;;;;;;;;;5071773;28;20029;-80
2024/01/21 00:15:05;;;;;;;16.15;8.77;;;;;;;;;;5070419;28;20107;-80
2024/01/21 00:17:31;;;;;;;15.93;9.07;;;;;;;;;;5070746;28;20047;-80
2024/01/21 00:19:57;;;;;;;14.60;8.85;;;;;;;;;;5070547;28;20099;-80
2024/01/21 00:22:23;;;;;;;15.35;8.27;;;;;;;;;;5070503;28;20031;-80
2024/01/21 00:24:49;;;;;;;13.52;9.52;;;;;;;;;;5070503;28;20032;-80
2024/01/21 00:27:15;;;;;;;16.48;9.13;;;;;;;;;;5070442;28;20025;-80
2024/01/21 00:29:41;;;;;;;13.77;8.90;;;;;;;;;;5070851;28;20033;-80
2024/01/21 00:32:07;;;;;;;13.50;8.52;;;;;;;;;;5070461;28;20030;-80
2024/01/21 00:34:33;;;;;;;14.68;9.40;;;;;;;;;;5070314;28;20396;-80
2024/01/21 00:36:59;;;;;;;13.00;8.82;;;;;;;;;;5070206;28;20028;-80
2024/01/21 00:39:25;;;;;;;11.68;8.20;;;;;;;;;;5070115;28;20491;-80
2024/01/21 00:41:51;;;;;;;15.25;8.55;;;;;;;;;;5068860;28;20050;-80
2024/01/21 00:44:18;;;;;;;14.98;9.60;;;;;;;;;;5068797;28;20511;-80
2024/01/21 00:46:45;;;;;;;12.18;8.40;;;;;;;;;;5070833;28;20485;-80
2024/01/21 00:49:11;;;;;;;14.82;8.52;;;;;;;;;;5070506;28;20523;-80
2024/01/21 00:51:37;;;;;;;11.65;8.35;;;;;;;;;;5069151;28;20056;-80
2024/01/21 00:54:03;;;;;;;15.93;8.98;;;;;;;;;;5069959;28;20468;-79
2024/01/21 00:56:29;;;;;;;14.52;8.68;;;;;;;;;;5069926;28;20070;-79
2024/01/21 00:58:55;;;;;;;14.73;8.25;;;;;;;;;;5069654;28;20028;-79
2024/01/21 01:01:21;;;;;;;19.67;9.32;;;;;;;;;;5068533;28;20033;-79
2024/01/21 01:03:47;;;;;;;14.65;8.20;;;;;;;;;;5073932;28;20024;-79
2024/01/21 01:06:13;;;;;;;16.42;9.30;;;;;;;;;;5090799;28;20034;-79
2024/01/21 01:08:39;;;;;;;16.27;8.82;;;;;;;;;;5089944;28;20024;-79
2024/01/21 01:11:05;;;;;;;21.80;10.95;;;;;;;;;;5089835;28;20460;-79
2024/01/21 01:13:31;;;;;;;28.20;12.32;;;;;;;;;;5089820;28;20499;-79
2024/01/21 01:15:59;;;;;;;22.63;10.98;;;;;;;;;;5089746;28;20034;-79
2024/01/21 01:18:25;;;;;;;21.23;10.93;;;;;;;;;;5089134;28;20039;-79
2024/01/21 01:20:51;;;;;;;13.45;8.48;;;;;;;;;;5069555;28;20150;-79
2024/01/21 01:23:18;;;;;;;20.55;10.02;;;;;;;;;;5069945;28;20036;-79
2024/01/21 01:25:44;;;;;;;12.63;7.78;;;;;;;;;;5070108;28;20055;-79
2024/01/21 01:28:10;;;;;;;16.08;9.05;;;;;;;;;;5069194;28;20098;-79
2024/01/21 01:30:36;;;;;;;15.73;8.90;;;;;;;;;;5069152;28;20091;-79
2024/01/21 01:33:02;;;;;;;15.10;9.48;;;;;;;;;;5069335;28;20021;-79
2024/01/21 01:35:28;;;;;;;15.68;8.77;;;;;;;;;;5070425;28;20031;-79
2024/01/21 01:37:54;;;;;;;15.75;9.25;;;;;;;;;;5088873;28;20122;-79
2024/01/21 01:40:20;;;;;;;14.00;8.88;;;;;;;;;;5069217;28;20020;-79
2024/01/21 01:42:56;;;;;;;14.15;8.68;;;;;;;;;;5069967;28;20067;-79
2024/01/21 01:45:22;;;;;;;9.63;7.35;;;;;;;;;;5069171;28;20100;-79
2024/01/21 01:47:48;;;;;;;13.27;7.90;;;;;;;;;;5070414;28;20517;-79
2024/01/21 01:50:14;;;;;;;17.05;8.65;;;;;;;;;;5069762;28;20488;-79
2024/01/21 01:52:40;;;;;;;12.35;7.75;;;;;;;;;;5069115;28;20029;-79
2024/01/21 01:55:07;;;;;;;13.88;7.72;;;;;;;;;;5069006;28;20025;-79
2024/01/21 01:57:34;;;;;;;11.23;7.50;;;;;;;;;;5067582;28;20032;-79
2024/01/21 02:00:00;;;;;;;10.30;7.18;;;;;;;;;;5068945;28;20070;-79
2024/01/21 02:02:26;;;;;;;12.68;7.68;;;;;;;;;;5068324;28;20020;-79
2024/01/21 02:04:52;;;;;;;13.25;7.90;;;;;;;;;;5068886;28;20052;-79
2024/01/21 02:07:18;;;;;;;13.25;7.32;;;;;;;;;;5069784;28;20354;-79
2024/01/21 02:09:44;;;;;;;12.98;8.10;;;;;;;;;;5068812;28;20024;-79
2024/01/21 02:12:10;;;;;;;13.05;7.55;;;;;;;;;;5068839;28;20356;-79
2024/01/21 02:14:36;;;;;;;10.85;7.68;;;;;;;;;;5068885;28;20392;-79
2024/01/21 02:17:02;;;;;;;19.90;7.93;;;;;;;;;;5068761;28;20029;-79
2024/01/21 02:19:30;;;;;;;11.68;7.60;;;;;;;;;;5069004;28;20472;-79
2024/01/21 02:21:56;;;;;;;12.37;7.57;;;;;;;;;;5068766;28;20020;-79
2024/01/21 02:24:29;;;;;;;11.45;7.03;;;;;;;;;;5068715;28;20082;-79
2024/01/21 02:26:55;;;;;;;11.57;6.80;;;;;;;;;;5068716;28;20457;-80
2024/01/21 02:29:21;;;;;;;9.40;6.88;;;;;;;;;;5068851;28;20047;-80
2024/01/21 02:31:47;;;;;;;12.70;8.25;;;;;;;;;;5069461;28;20024;-80
2024/01/21 02:34:13;;;;;;;10.25;7.25;;;;;;;;;;5083210;28;20028;-80
2024/01/21 02:36:39;;;;;;;12.93;7.72;;;;;;;;;;5088845;28;20054;-80
2024/01/21 02:39:05;;;;;;;11.52;7.05;;;;;;;;;;5088884;28;20032;-80
2024/01/21 02:41:31;;;;;;;10.93;6.65;;;;;;;;;;5086990;28;20029;-80
2024/01/21 02:43:57;;;;;;;13.77;7.90;;;;;;;;;;5068580;28;20025;-80
2024/01/21 02:46:23;;;;;;;9.90;6.68;;;;;;;;;;5067877;28;20098;-79
2024/01/21 02:48:49;;;;;;;10.02;7.28;;;;;;;;;;5069392;28;20461;-80
2024/01/21 02:51:15;;;;;;;11.70;7.30;;;;;;;;;;5068453;28;20029;-80
2024/01/21 02:53:41;;;;;;;12.45;7.25;;;;;;;;;;5068450;28;20016;-80
2024/01/21 02:56:07;;;;;;;10.52;7.00;;;;;;;;;;5068347;28;20028;-80
2024/01/21 02:58:33;;;;;;;11.02;6.93;;;;;;;;;;5068323;28;20499;-82
2024/01/21 03:00:59;;;;;;;10.25;6.85;;;;;;;;;;5068199;28;20480;-79
2024/01/21 03:03:25;;;;;;;8.80;6.40;;;;;;;;;;5068326;28;20107;-80
2024/01/21 03:05:51;;;;;;;10.38;6.72;;;;;;;;;;5068820;28;20051;-80
2024/01/21 03:08:17;;;;;;;10.60;6.80;;;;;;;;;;5068385;28;20104;-81
2024/01/21 03:10:43;;;;;;;11.50;7.00;;;;;;;;;;5068400;28;20029;-81
2024/01/21 03:13:09;;;;;;;11.05;7.55;;;;;;;;;;5068995;28;20417;-80
2024/01/21 03:15:35;;;;;;;10.15;7.03;;;;;;;;;;5071860;28;20025;-80
2024/01/21 03:18:01;;;;;;;15.70;7.90;;;;;;;;;;5092001;28;20036;-80
2024/01/21 03:20:27;;;;;;;12.90;7.47;;;;;;;;;;5092070;28;20056;-81
2024/01/21 03:22:53;;;;;;;14.38;7.07;;;;;;;;;;5092859;28;20024;-81
2024/01/21 03:25:19;;;;;;;9.35;6.85;;;;;;;;;;5092762;28;20024;-81
2024/01/21 03:27:45;;;;;;;9.20;6.80;;;;;;;;;;5091919;28;20031;-80
2024/01/21 03:30:11;;;;;;;11.68;7.45;;;;;;;;;;5091553;28;20032;-80
2024/01/21 03:32:37;;;;;;;9.60;6.88;;;;;;;;;;5091776;28;20020;-81
2024/01/21 03:35:03;;;;;;;13.45;7.55;;;;;;;;;;5089868;28;20024;-81
2024/01/21 03:37:29;;;;;;;11.30;6.75;;;;;;;;;;5071819;28;20036;-81
2024/01/21 03:39:55;;;;;;;11.43;6.95;;;;;;;;;;5071443;28;20028;-81
2024/01/21 03:42:21;;;;;;;12.73;7.35;;;;;;;;;;5072197;28;20031;-81
2024/01/21 03:44:49;;;;;;;10.00;7.13;;;;;;;;;;5071242;28;20028;-80
2024/01/21 03:47:15;;;;;;;9.90;6.40;;;;;;;;;;5071325;28;20288;-81
2024/01/21 03:49:41;;;;;;;9.43;6.35;;;;;;;;;;5069886;28;20033;-81
2024/01/21 03:52:07;;;;;;;11.77;6.68;;;;;;;;;;5090799;28;20028;-81
2024/01/21 03:54:33;;;;;;;10.73;6.55;;;;;;;;;;5091392;28;20028;-81
2024/01/21 03:56:59;;;;;;;10.98;6.97;;;;;;;;;;5091266;28;20028;-80
2024/01/21 03:59:25;;;;;;;9.90;6.75;;;;;;;;;;5092065;28;20024;-80
2024/01/21 04:01:51;;;;;;;11.05;7.18;;;;;;;;;;5092085;28;20024;-81
2024/01/21 04:04:17;;;;;;;10.23;6.43;;;;;;;;;;5091175;28;20099;-81
2024/01/21 04:06:43;;;;;;;9.93;6.22;;;;;;;;;;5075518;28;20017;-80
2024/01/21 04:09:10;;;;;;;9.43;6.53;;;;;;;;;;5070901;28;20413;-81
2024/01/21 04:11:36;;;;;;;9.88;6.22;;;;;;;;;;5070870;28;20078;-80
2024/01/21 04:14:02;;;;;;;12.00;6.15;;;;;;;;;;5070694;28;20067;-80
2024/01/21 04:16:28;;;;;;;9.57;6.10;;;;;;;;;;5070681;28;20120;-80
2024/01/21 04:18:54;;;;;;;10.27;6.45;;;;;;;;;;5071486;28;20495;-80
2024/01/21 04:21:20;;;;;;;10.15;6.65;;;;;;;;;;5070788;28;20033;-80
2024/01/21 04:23:46;;;;;;;12.00;5.93;;;;;;;;;;5070659;28;20252;-79
2024/01/21 04:26:12;;;;;;;10.00;6.18;;;;;;;;;;5069803;28;20025;-79
2024/01/21 04:28:38;;;;;;;9.30;5.95;;;;;;;;;;5069025;28;20044;-79
2024/01/21 04:31:05;;;;;;;11.07;6.60;;;;;;;;;;5070617;28;20025;-80
2024/01/21 04:33:31;;;;;;;12.00;6.00;;;;;;;;;;5070345;28;20028;-79
2024/01/21 04:35:58;;;;;;;12.07;6.25;;;;;;;;;;5070393;28;20024;-80
2024/01/21 04:38:25;;;;;;;11.70;6.00;;;;;;;;;;5071078;28;20040;-81
2024/01/21 04:40:52;;;;;;;7.82;5.75;;;;;;;;;;5069294;28;20071;-81
2024/01/21 04:43:19;;;;;;;10.82;6.47;;;;;;;;;;5070253;28;20051;-81
2024/01/21 04:45:45;;;;;;;12.73;6.07;;;;;;;;;;5070157;28;20024;-80
2024/01/21 04:48:11;;;;;;;10.30;6.00;;;;;;;;;;5070101;28;20533;-80
2024/01/21 04:50:37;;;;;;;11.18;5.72;;;;;;;;;;5070114;28;20020;-80
2024/01/21 04:53:03;;;;;;;11.13;6.15;;;;;;;;;;5070016;28;20511;-80
2024/01/21 04:55:29;;;;;;;7.47;5.22;;;;;;;;;;5069953;28;20033;-80
2024/01/21 04:57:55;;;;;;;10.70;5.53;;;;;;;;;;5070679;28;20040;-80
2024/01/21 05:00:21;;;;;;;10.00;5.85;;;;;;;;;;5069932;28;20478;-80
2024/01/21 05:02:47;;;;;;;8.40;5.63;;;;;;;;;;5069838;28;20036;-80
2024/01/21 05:05:13;;;;;;;9.00;6.07;;;;;;;;;;5069226;28;20016;-80
2024/01/21 05:07:39;;;;;;;9.43;6.07;;;;;;;;;;5069770;28;20028;-80
2024/01/21 05:10:05;;;;;;;7.93;5.90;;;;;;;;;;5069566;28;20472;-80
2024/01/21 05:12:31;;;;;;;10.07;5.55;;;;;;;;;;5069537;28;20032;-80
2024/01/21 05:14:57;;;;;;;11.85;5.85;;;;;;;;;;5070340;28;20017;-80
2024/01/21 05:17:23;;;;;;;14.43;5.97;;;;;;;;;;5069418;28;20033;-79
2024/01/21 05:19:49;;;;;;;8.90;5.53;;;;;;;;;;5069591;28;20060;-80
2024/01/21 05:22:15;;;;;;;10.10;6.20;;;;;;;;;;5069475;28;20032;-79
2024/01/21 05:24:41;;;;;;;5.97;5.05;;;;;;;;;;5069315;28;20024;-79
2024/01/21 05:27:07;;;;;;;9.07;5.32;;;;;;;;;;5069412;28;20107;-80
2024/01/21 05:29:33;;;;;;;8.88;5.43;;;;;;;;;;5069179;28;20070;-79
2024/01/21 05:31:59;;;;;;;10.15;5.43;;;;;;;;;;5070168;28;20042;-80
2024/01/21 05:34:25;;;;;;;8.05;5.22;;;;;;;;;;5069242;28;20090;-80
2024/01/21 05:36:51;;;;;;;8.20;5.35;;;;;;;;;;5069546;28;20625;-80
2024/01/21 05:39:17;;;;;;;9.70;5.95;;;;;;;;;;5069272;28;20111;-80
2024/01/21 05:41:43;;;;;;;9.52;5.90;;;;;;;;;;5069264;28;20016;-79
2024/01/21 05:44:09;;;;;;;9.30;5.72;;;;;;;;;;5069190;28;20032;-80
2024/01/21 05:46:35;;;;;;;13.18;5.85;;;;;;;;;;5067857;28;20069;-80
2024/01/21 05:49:01;;;;;;;9.63;5.53;;;;;;;;;;5069689;28;20499;-80
2024/01/21 05:51:27;;;;;;;8.38;5.32;;;;;;;;;;5069997;28;20021;-80
2024/01/21 05:53:53;;;;;;;11.18;5.70;;;;;;;;;;5069123;28;20102;-79
2024/01/21 05:56:19;;;;;;;6.63;5.20;;;;;;;;;;5068523;28;20039;-80
2024/01/21 05:58:45;;;;;;;7.47;5.38;;;;;;;;;;5069116;28;20064;-80
2024/01/21 06:01:11;;;;;;;7.53;5.07;;;;;;;;;;5068989;28;20024;-80
2024/01/21 06:03:37;;;;;;;9.00;5.63;;;;;;;;;;5068980;28;20029;-80
2024/01/21 06:06:03;;;;;;;9.30;5.55;;;;;;;;;;5067633;28;20025;-80
2024/01/21 06:08:29;;;;;;;8.55;5.43;;;;;;;;;;5069766;28;20036;-80
2024/01/21 06:10:55;;;;;;;6.30;5.13;;;;;;;;;;5067633;28;20030;-80
2024/01/21 06:13:21;;;;;;;8.63;5.32;;;;;;;;;;5068850;28;20028;-80
2024/01/21 06:15:47;;;;;;;12.02;5.60;;;;;;;;;;5068835;28;20028;-80
2024/01/21 06:18:13;;;;;;;6.93;5.22;;;;;;;;;;5068748;28;20112;-80
2024/01/21 06:20:39;;;;;;;8.43;5.60;;;;;;;;;;5074116;28;20023;-80
2024/01/21 06:23:06;;;;;;;6.60;4.97;;;;;;;;;;5078451;28;20075;-80
2024/01/21 06:25:32;;;;;;;7.75;5.20;;;;;;;;;;5069609;28;20025;-80
2024/01/21 06:27:58;;;;;;;8.50;5.18;;;;;;;;;;5069152;28;20106;-80
2024/01/21 06:30:24;;;;;;;7.07;5.38;;;;;;;;;;5068809;28;20095;-81
2024/01/21 06:32:50;;;;;;;7.70;5.30;;;;;;;;;;5068669;28;20029;-80
2024/01/21 06:35:16;;;;;;;7.70;4.90;;;;;;;;;;5067844;28;20027;-80
2024/01/21 06:37:42;;;;;;;8.57;5.45;;;;;;;;;;5067732;28;20045;-80
2024/01/21 06:40:09;;;;;;;7.60;5.20;;;;;;;;;;5067941;28;20024;-81
2024/01/21 06:42:36;;;;;;;8.30;5.15;;;;;;;;;;5068330;28;20564;-79
2024/01/21 06:45:02;;;;;;;6.72;5.13;;;;;;;;;;5068757;28;20078;-78
2024/01/21 06:47:28;;;;;;;7.47;5.22;;;;;;;;;;5056038;28;20032;-80
2024/01/21 06:49:54;;;;;;;7.25;5.00;;;;;;;;;;5076503;28;20025;-79
2024/01/21 06:52:20;;;;;;;6.72;5.00;;;;;;;;;;5072161;28;20107;-79
2024/01/21 06:54:46;;;;;;;6.15;4.90;;;;;;;;;;5077869;28;20028;-79
2024/01/21 06:57:12;;;;;;;7.68;5.45;;;;;;;;;;5086875;28;20036;-79
2024/01/21 06:59:38;;;;;;;7.15;4.90;;;;;;;;;;5071549;28;20020;-79
2024/01/21 07:02:05;;;;;;;11.07;5.00;;;;;;;;;;5073017;28;20051;-80
2024/01/21 07:04:31;;;;;;;6.47;4.78;;;;;;;;;;5072989;28;20035;-80
2024/01/21 07:06:57;;;;;;;6.53;5.13;;;;;;;;;;5078218;28;20024;-80
2024/01/21 07:09:24;;;;;;;10.32;5.10;;;;;;;;;;5091619;28;20031;-79
2024/01/21 07:11:50;;;;;;;9.95;5.72;;;;;;;;;;5071606;28;20031;-80
2024/01/21 07:14:16;;;;;;;7.65;5.18;;;;;;;;;;5071871;28;20028;-80
2024/01/21 07:16:42;;;;;;;11.38;5.53;;;;;;;;;;5070286;28;20033;-80
2024/01/21 07:19:08;;;;;;;9.93;5.40;;;;;;;;;;5064224;28;20025;-80
2024/01/21 07:21:34;;;;;;;9.18;5.72;;;;;;;;;;5062225;28;20029;-79
2024/01/21 07:24:00;;;;;;;10.77;5.50;;;;;;;;;;5051473;28;20025;-79
2024/01/21 07:26:27;;;;;;;8.13;5.53;;;;;;;;;;5051565;28;20270;-80
2024/01/21 07:28:54;;;;;;;7.20;5.18;;;;;;;;;;5051313;28;20035;-79
2024/01/21 07:31:19;;;;;;;7.85;4.90;;;;;;;;;;5051511;28;20021;-79
2024/01/21 07:33:45;;;;;;;5.32;4.63;;;;;;;;;;5060396;28;20078;-80
2024/01/21 07:36:12;;;;;;;8.40;5.20;;;;;;;;;;5063403;28;20025;-80
2024/01/21 07:38:38;;;;;;;9.70;4.97;;;;;;;;;;5051642;28;20048;-81
2024/01/21 07:41:04;;;;;;;9.88;5.10;;;;;;;;;;5068551;28;20017;-79
2024/01/21 07:43:30;;;;;;;10.32;5.07;;;;;;;;;;5071320;28;20059;-79
2024/01/21 07:45:56;;;;;;;9.05;5.30;;;;;;;;;;5071065;28;20103;-79
2024/01/21 07:48:23;;;;;;;6.80;4.85;;;;;;;;;;5070664;28;20108;-79
2024/01/21 07:50:49;;;;;;;6.45;5.13;;;;;;;;;;5071169;28;20071;-79
2024/01/21 07:53:18;;;;;;;7.80;5.05;;;;;;;;;;5068762;28;20060;-79
2024/01/21 07:55:44;;;;;;;5.72;4.68;;;;;;;;;;5070412;28;20560;-79
2024/01/21 07:58:12;;;;;;;6.93;5.07;;;;;;;;;;5070538;28;20111;-81
2024/01/21 08:00:38;;;;;;;5.85;4.95;;;;;;;;;;5070900;28;20604;-81
2024/01/21 08:03:05;;;;;;;9.32;4.88;;;;;;;;;;5071283;28;20028;-81
2024/01/21 08:05:33;;;;;;;7.28;4.88;;;;;;;;;;5070965;28;20020;-80
2024/01/21 08:07:59;;;;;;;7.40;5.15;;;;;;;;;;5070961;28;20328;-81
2024/01/21 08:10:25;;;;;;;8.30;5.20;;;;;;;;;;5070208;28;20035;-81
2024/01/21 08:12:50;;;;;;;7.32;4.90;;;6.30;99.90;;;;;;5069596;28;20024;-86
2024/01/21 08:15:16;;;;;;;7.50;4.82;;;6.30;99.90;;;;;;5070176;28;20032;-85
2024/01/21 08:17:42;;;;;;;7.43;4.95;;;6.40;99.90;;;;;;5068582;28;20469;-85
2024/01/21 08:20:09;;;;;;;8.77;4.40;;;6.40;99.90;;;;;;5069662;28;20016;-85
2024/01/21 08:22:35;;;;;;;7.05;4.68;;;6.40;99.90;;;;;;5070980;28;20037;-85
2024/01/21 08:25:01;;;;;;;9.95;5.25;;;6.40;99.90;;;;;;5068731;28;20048;-85
2024/01/21 08:27:26;;;;;;;10.90;4.70;;;6.50;99.90;;;;;;5066452;28;20500;-86
2024/01/21 08:29:52;;;;;;;12.20;5.25;;;6.50;99.90;;;;;;5070377;28;20033;-86
2024/01/21 08:32:17;;;;;;;7.38;5.38;;;6.50;99.90;;;;;;5070376;28;20036;-86
2024/01/21 08:34:44;;;;;;;7.13;5.38;;;6.70;99.90;;;;;;5070326;28;20025;-86
2024/01/21 08:37:10;;;;;;;12.80;5.10;;;6.60;99.90;;;;;;5070736;28;20035;-85
2024/01/21 08:39:36;;;;;;;12.23;5.78;;;6.60;99.90;;;;;;5069677;28;20033;-86
2024/01/21 08:42:03;;;;;;;8.95;6.22;;;6.60;99.90;;;;;;5069792;28;20412;-85
2024/01/21 08:44:28;;;;;;;11.02;5.68;;;6.60;99.90;;;;;;5070053;28;20028;-85
2024/01/21 08:46:55;;;;;;;8.23;5.18;;;6.60;99.90;;;;;;5070170;28;20430;-85
2024/01/21 08:49:22;;;;;;;14.10;5.80;;;6.60;99.90;;;;;;5069980;28;20135;-84
2024/01/21 08:51:47;;;;;;;6.80;5.40;;;6.70;99.90;;;;;;5069414;28;20099;-86
2024/01/21 08:54:13;;;;;;;7.25;5.13;;;6.70;99.90;;;;;;5069729;28;20116;-85
2024/01/21 08:56:39;;;;;;;6.78;5.60;;;6.70;99.90;;;;;;5065652;28;20149;-85
2024/01/21 08:59:04;;;;;;;14.45;6.03;;;6.80;99.90;;;;;;5069618;28;20033;-84
2024/01/21 09:01:30;;;;;;;8.88;5.88;;;6.80;99.90;;;;;;5061441;28;20029;-83
2024/01/21 09:03:56;;;;;;;7.80;5.78;;;6.90;99.90;;;;;;5069643;28;20032;-85
2024/01/21 09:06:22;;;;;;;10.82;5.95;;;6.90;99.90;;;;;;5067369;28;20032;-83
2024/01/21 09:08:53;;;;;;;9.93;6.13;;;6.80;99.90;;;;;;5054954;28;20032;-83
2024/01/21 09:11:20;;;;;;;6.90;5.68;;;6.90;99.90;;;;;;5056098;28;20028;-84
2024/01/21 09:13:46;;;;;;;6.32;5.25;;;6.90;99.90;;;;;;5068208;28;20502;-83
2024/01/21 09:16:16;;;;;;;15.25;5.80;;;6.90;99.90;;;;;;5069942;28;20025;-82
2024/01/21 09:18:42;;;;;;;7.43;5.65;;;6.90;99.90;;;;;;5068888;28;20036;-83
2024/01/21 09:21:08;;;;;;;8.57;6.07;;;6.90;99.90;;;;;;5067633;28;20502;-84
2024/01/21 09:23:33;;;;;;;9.95;6.45;;;7.00;99.90;;;;;;5066693;28;20046;-84
2024/01/21 09:25:59;;;;;;;8.52;6.32;;;6.90;99.90;;;;;;5066911;28;20024;-83
2024/01/21 09:28:25;;;;;;;9.02;7.03;;;7.00;99.90;;;;;;5066886;28;20039;-83
2024/01/21 09:30:50;;;;;;;9.02;6.70;;;7.10;99.90;;;;;;5067071;28;20021;-84
2024/01/21 09:33:17;;;;;;;12.55;7.60;;;6.90;99.90;;;;;;5066715;28;20028;-83
2024/01/21 09:35:43;;;;;;;11.23;7.32;;;6.90;99.90;;;;;;5067706;28;20020;-83
2024/01/21 09:38:10;;;;;;;16.20;7.65;;;6.80;99.90;;;;;;5057368;28;20090;-83
2024/01/21 09:40:36;;;;;;;16.92;10.30;;;6.90;99.90;;;;;;5068598;28;20380;-85
2024/01/21 09:43:02;;;;;;;29.95;19.38;;;7.60;99.90;;;;;;5069172;28;20086;-84
2024/01/21 09:45:31;;;;;;;34.47;18.35;;;6.90;99.90;;;;;;5069044;28;20024;-84
2024/01/21 09:47:57;;;;;;;17.50;11.38;;;6.90;99.90;;;;;;5067695;28;20036;-85
2024/01/21 09:50:25;;;;;;;17.58;12.38;;;7.00;99.90;;;;;;5069241;28;20126;-84
2024/01/21 09:52:51;;;;;;;12.23;7.93;;;7.00;99.90;;;;;;5055872;28;20029;-85
2024/01/21 09:55:17;;;;;;;19.92;12.45;;;7.00;99.90;;;;;;5050490;28;20025;-83
2024/01/21 09:57:44;;;;;;;13.68;9.00;;;7.10;99.90;;;;;;5068815;28;20040;-83
2024/01/21 10:00:12;;;;;;;20.48;8.40;;;7.10;99.90;;;;;;5067403;28;20486;-84
2024/01/21 10:02:40;;;;;;;11.00;6.90;;;7.10;99.90;;;;;;5069081;28;20027;-83
2024/01/21 10:05:06;;;;;;;9.20;6.97;;;7.10;99.90;;;;;;5068134;28;20037;-83
2024/01/21 10:07:33;;;;;;;15.18;7.35;;;7.20;99.90;;;;;;5067852;28;20397;-83
2024/01/21 10:09:58;;;;;;;10.13;7.30;;;7.20;99.90;;;;;;5066698;28;20020;-83
2024/01/21 10:12:24;;;;;;;17.17;7.88;;;7.30;99.90;;;;;;5067838;28;20032;-83
2024/01/21 10:14:50;;;;;;;14.23;8.25;;;7.30;99.90;;;;;;5067937;28;20031;-83
2024/01/21 10:17:22;;;;;;;10.55;6.97;;;7.40;99.90;;;;;;5068802;28;20032;-83
2024/01/21 10:19:49;;;;;;;12.05;8.63;;;7.40;99.90;;;;;;5067688;28;20029;-83
2024/01/21 10:22:16;;;;;;;12.57;8.50;;;7.50;99.90;;;;;;5067901;28;20028;-83
2024/01/21 10:24:44;;;;;;;14.13;8.60;;;7.50;99.90;;;;;;5070000;28;20032;-83
2024/01/21 10:27:10;;;;;;;15.35;7.07;;;7.60;99.90;;;;;;5073132;28;20021;-83
2024/01/21 10:29:38;;;;;;;16.27;7.22;;;7.60;99.90;;;;;;5070877;28;20051;-83
2024/01/21 10:32:04;;;;;;;9.73;6.93;;;7.60;99.90;;;;;;5071590;28;20020;-83
2024/01/21 10:34:30;;;;;;;15.55;8.05;;;7.70;99.90;;;;;;5071749;28;20476;-84
2024/01/21 10:37:02;;;;;;;17.38;7.47;;;7.80;99.90;;;;;;5070040;28;20058;-83
2024/01/21 10:39:31;;;;;;;17.65;7.30;;;7.80;99.90;;;;;;5071146;28;20085;-84
2024/01/21 10:41:59;;;;;;;25.73;7.50;;;7.80;99.90;;;;;;5069413;28;20024;-84
2024/01/21 10:44:26;;;;;;;21.25;7.78;;;7.80;99.90;;;;;;5072562;28;20027;-83
2024/01/21 10:46:54;;;;;;;22.15;6.88;;;7.90;99.90;;;;;;5071605;28;20029;-83
2024/01/21 10:49:21;;;;;;;12.13;7.57;;;7.90;99.90;;;;;;5071339;28;20016;-83
2024/01/21 10:51:48;;;;;;;18.98;7.50;;;7.90;99.90;;;;;;5070395;28;20480;-83
2024/01/21 10:54:14;;;;;;;13.95;7.32;;;7.90;99.90;;;;;;5071935;28;20100;-84
2024/01/21 10:56:42;;;;;;;16.05;8.38;;;8.00;99.90;;;;;;5068707;28;20107;-84
2024/01/21 10:59:09;;;;;;;10.90;7.43;;;8.00;99.90;;;;;;5069218;28;20527;-83
2024/01/21 11:01:35;;;;;;;16.55;7.70;;;8.00;99.90;;;;;;5063881;28;20035;-83
2024/01/21 11:04:08;;;;;;;17.08;9.57;;;8.10;99.90;;;;;;5070583;28;20028;-84
2024/01/21 11:06:34;;;;;;;17.33;10.75;;;8.10;99.90;;;;;;5071708;28;20025;-83
2024/01/21 11:09:04;;;;;;;18.88;9.52;;;8.10;99.90;;;;;;5072026;28;20075;-84
2024/01/21 11:11:30;;;;;;;17.35;8.93;;;8.20;99.90;;;;;;5072113;28;20021;-83
2024/01/21 11:13:56;;;;;;;15.55;8.60;;;8.20;99.90;;;;;;5071708;28;20404;-83
2024/01/21 11:16:30;;;;;;;12.75;7.90;;;8.60;99.90;;;;;;5071114;28;20016;-83
2024/01/21 11:18:58;;;;;;;12.63;8.45;;;8.30;99.90;;;;;;5071491;28;20040;-83
2024/01/21 11:21:25;;;;;;;16.65;8.38;;;8.40;99.90;;;;;;5071531;28;20100;-84
2024/01/21 11:24:13;;;;;;;19.70;8.88;;;8.40;99.90;;;;;;5069533;28;20071;-83
2024/01/21 11:26:43;;;;;;;12.88;7.78;;;8.50;99.90;;;;;;5068880;28;20539;-83
2024/01/21 11:29:26;;;;;;;14.25;8.18;;;8.50;99.90;;;;;;5066409;28;20510;-83
2024/01/21 11:31:56;;;;;;;15.10;8.20;;;8.60;99.90;;;;;;5071613;28;20025;-83
2024/01/21 11:34:22;;;;;;;13.80;8.02;;;8.70;99.90;;;;;;5070734;28;20021;-83
2024/01/21 11:36:47;;;;;;;19.10;8.65;;;8.70;99.90;;;;;;5071213;28;20040;-84
2024/01/21 11:39:13;;;;;;;22.83;8.85;;;8.90;99.90;;;;;;5069391;28;20451;-84
2024/01/21 11:41:43;;;;;;;22.50;8.88;;;9.00;99.90;;;;;;5070378;28;20492;-84
2024/01/21 11:44:12;;;;;;;16.80;7.90;;;9.10;99.90;;;;;;5070417;28;20315;-84
2024/01/21 11:46:38;;;;;;;20.42;7.85;;;9.20;99.90;;;;;;5063018;28;20052;-84
2024/01/21 11:49:05;;;;;;;26.52;7.35;;;9.40;99.90;;;;;;5061369;28;20388;-84
2024/01/21 11:51:31;;;;;;;19.65;6.53;;;9.50;99.90;;;;;;5068773;28;20388;-84
2024/01/21 11:53:56;;;;;;;23.23;7.55;;;9.60;99.90;;;;;;5069282;28;20017;-84
2024/01/21 11:56:22;;;;;;;17.42;7.18;;;9.70;99.90;;;;;;5070985;28;20431;-84
2024/01/21 11:58:48;;;;;;;23.48;7.55;;;10.30;99.90;;;;;;5069562;28;20044;-84
2024/01/21 12:01:14;;;;;;;21.05;7.43;;;10.00;99.90;;;;;;5068949;28;20036;-83
2024/01/21 12:03:39;;;;;;;21.80;7.32;;;10.20;99.90;;;;;;5070053;28;20269;-83
2024/01/21 12:06:05;;;;;;;17.13;7.95;;;10.20;99.90;;;;;;5069693;28;20035;-84
2024/01/21 12:08:32;;;;;;;23.63;8.60;;;10.30;99.90;;;;;;5069711;28;20517;-84
2024/01/21 12:10:58;;;;;;;28.17;7.75;;;10.30;99.90;;;;;;5069810;28;20081;-84
2024/01/21 12:13:27;;;;;;;26.20;7.97;;;10.50;99.90;;;;;;5068527;28;20021;-84
2024/01/21 12:15:52;;;;;;;;;;;10.50;99.90;;;;;;5071112;28;20033;-85
2024/01/21 12:18:18;;;;;;;25.77;8.13;;;10.50;99.90;;;;;;5070868;28;19923;-85
2024/01/21 12:20:44;;;;;;;31.00;7.75;;;10.50;99.90;;;;;;5069676;28;20032;-83
2024/01/21 12:23:21;;;;;;;25.98;7.72;;;10.70;99.90;;;;;;5069439;28;20031;-84
2024/01/21 12:25:48;;;;;;;26.83;7.97;;;10.70;99.90;;;;;;5068785;28;20031;-84
2024/01/21 12:28:13;;;;;;;23.35;7.18;;;10.80;99.90;;;;;;5068337;28;20294;-83
2024/01/21 12:30:39;;;;;;;20.83;7.20;;;10.90;99.90;;;;;;5066697;28;20055;-84
2024/01/21 12:33:05;;;;;;;27.77;7.47;;;11.00;99.90;;;;;;5069676;28;20032;-84
2024/01/21 12:35:31;;;;;;;20.20;7.00;;;11.00;99.90;;;;;;5069431;28;20078;-84
2024/01/21 12:37:59;;;;;;;25.38;9.40;;;11.00;99.90;;;;;;5069133;28;20081;-84
2024/01/21 12:40:25;;;;;;;26.90;8.23;;;11.10;99.90;;;;;;5068742;28;20415;-83
2024/01/21 12:42:52;;;;;;;21.80;8.23;;;11.20;99.90;;;;;;5068475;28;20062;-84
2024/01/21 12:45:18;;;;;;;19.98;7.30;;;11.30;99.90;;;;;;5069564;28;20511;-83
2024/01/21 12:47:44;;;;;;;19.95;6.53;;;11.30;99.90;;;;;;5068273;28;20028;-85
2024/01/21 12:50:10;;;;;;;21.42;7.15;;;11.40;99.90;;;;;;5070843;28;20032;-84
2024/01/21 12:52:36;;;;;;;31.02;7.05;;;11.50;99.90;;;;;;5072924;28;20024;-85
2024/01/21 12:55:04;;;;;;;24.88;7.55;;;11.50;99.90;;;;;;5068173;28;20036;-84
2024/01/21 12:57:30;;;;;;;26.30;6.68;;;11.50;99.90;;;;;;5069238;28;20446;-86
2024/01/21 12:59:56;;;;;;;29.70;7.22;;;11.60;99.90;;;;;;5068955;28;20039;-83
2024/01/21 13:02:24;;;;;;;20.08;6.30;;;11.70;99.90;;;;;;5068537;28;20532;-82
2024/01/21 13:04:51;;;;;;;21.33;5.22;;;11.60;99.90;;;;;;5068925;28;20059;-83
2024/01/21 13:07:17;;;;;;;25.05;5.80;;;11.60;99.90;;;;;;5069696;28;20031;-82
2024/01/21 13:09:43;;;;;;;25.27;4.72;;;11.80;99.90;;;;;;5068969;28;20242;-83
2024/01/21 13:12:09;;;;;;;24.80;4.63;;;11.70;99.90;;;;;;5067835;28;20027;-86
2024/01/21 13:14:34;;;;;;;17.05;4.13;;;11.80;99.90;;;;;;5067970;28;20388;-82
2024/01/21 13:17:01;;;;;;;21.85;4.25;;;11.90;99.90;;;;;;5067285;28;20024;-82
2024/01/21 13:19:27;;;;;;;24.05;4.82;;;12.00;99.90;;;;;;5068433;28;20077;-85
2024/01/21 13:21:53;;;;;;;23.30;4.05;;;12.10;99.90;;;;;;5063867;28;20017;-85
2024/01/21 13:24:20;;;;;;;24.33;4.47;;;12.20;99.90;;;;;;5056056;28;20029;-84
2024/01/21 13:26:52;;;;;;;24.38;3.90;;;12.30;99.90;;;;;;5068859;28;20024;-84
2024/01/21 13:32:04;;;;;;;16.27;3.63;;;12.30;99.90;;;;;;5068762;28;20074;-84
2024/01/21 13:34:30;;;;;;;20.35;4.57;;;12.40;99.90;;;;;;5067780;28;20036;-86
2024/01/21 13:36:56;;;;;;;19.25;4.25;;;12.50;99.90;;;;;;5067724;28;20020;-84
2024/01/21 13:39:24;;;;;;;23.52;4.55;;;12.50;99.90;;;;;;5066611;28;20045;-84
2024/01/21 13:41:51;;;;;;;22.90;4.70;;;12.50;99.90;;;;;;5066925;28;20021;-86
2024/01/21 13:44:17;;;;;;;19.02;3.95;;;13.00;99.90;;;;;;5066646;28;20029;-86